createdAt,value
2022-11-19T00:01:29.623Z,2.90
2022-11-19T00:03:56.619Z,2.87
2022-11-19T00:06:27.344Z,2.90
2022-11-19T00:08:55.489Z,2.83
2022-11-19T00:11:45.725Z,2.90
2022-11-19T00:14:15.739Z,2.90
2022-11-19T00:16:44.263Z,2.90
2022-11-19T00:19:12.624Z,2.90
2022-11-19T00:21:40.160Z,2.93
2022-11-19T00:24:08.333Z,2.90
2022-11-19T00:26:35.452Z,2.90
2022-11-19T00:29:02.422Z,2.93
2022-11-19T00:31:29.391Z,3.07
2022-11-19T00:33:56.541Z,2.93
2022-11-19T00:36:24.061Z,2.90
2022-11-19T00:38:51.150Z,2.97
2022-11-19T00:41:18.656Z,2.90
2022-11-19T00:43:49.282Z,2.90
2022-11-19T00:46:31.047Z,2.97
2022-11-19T00:49:00.280Z,2.90
2022-11-19T00:51:31.538Z,2.90
2022-11-19T00:53:59.027Z,3.00
2022-11-19T00:56:27.823Z,3.07
2022-11-19T00:58:56.255Z,3.00
2022-11-19T01:01:26.017Z,3.00
2022-11-19T01:03:54.026Z,3.03
2022-11-19T01:06:25.312Z,3.10
2022-11-19T01:08:53.557Z,3.07
2022-11-19T01:11:29.378Z,3.00
2022-11-19T01:13:58.679Z,3.07
2022-11-19T01:16:34.243Z,3.00
2022-11-19T01:19:03.079Z,3.10
2022-11-19T01:21:33.491Z,3.03
2022-11-19T01:24:01.967Z,3.10
2022-11-19T01:26:29.572Z,3.13
2022-11-19T01:28:57.574Z,3.10
2022-11-19T01:31:30.075Z,3.10
2022-11-19T01:33:58.326Z,3.07
2022-11-19T01:36:29.200Z,3.03
2022-11-19T01:38:57.911Z,3.10
2022-11-19T01:41:32.730Z,3.20
2022-11-19T01:44:48.195Z,3.10
2022-11-19T01:47:15.404Z,3.27
2022-11-19T01:49:42.396Z,3.27
2022-11-19T01:52:09.464Z,3.20
2022-11-19T01:54:45.531Z,3.30
2022-11-19T01:57:16.868Z,3.27
2022-11-19T01:59:49.315Z,3.17
2022-11-19T02:02:19.762Z,3.27
2022-11-19T02:04:51.539Z,3.30
2022-11-19T02:07:26.132Z,3.20
2022-11-19T02:09:53.776Z,3.20
2022-11-19T02:13:16.222Z,3.30
2022-11-19T02:16:00.082Z,3.37
2022-11-19T02:18:51.585Z,3.37
2022-11-19T02:22:26.866Z,3.37
2022-11-19T02:24:59.893Z,3.33
2022-11-19T02:28:15.844Z,3.40
2022-11-19T02:30:48.909Z,3.30
2022-11-19T02:34:02.826Z,3.33
2022-11-19T02:36:53.560Z,3.33
2022-11-19T02:39:44.087Z,3.47
2022-11-19T02:42:29.541Z,3.50
2022-11-19T02:45:10.477Z,3.40
2022-11-19T02:47:56.877Z,3.40
2022-11-19T02:50:49.442Z,3.33
2022-11-19T02:53:16.721Z,3.40
2022-11-19T02:56:02.985Z,3.33
2022-11-19T02:58:51.193Z,3.40
2022-11-19T03:01:40.731Z,3.37
2022-11-19T03:04:29.650Z,3.40
2022-11-19T03:07:10.320Z,3.40
2022-11-19T03:09:46.707Z,3.37
2022-11-19T03:12:44.904Z,3.43
2022-11-19T03:15:53.048Z,3.40
2022-11-19T03:18:45.705Z,3.40
2022-11-19T03:21:44.369Z,3.37
2022-11-19T03:25:01.250Z,3.40
2022-11-19T03:27:43.609Z,3.47
2022-11-19T03:30:12.848Z,3.47
2022-11-19T03:33:00.929Z,3.40
2022-11-19T03:35:40.779Z,3.47
2022-11-19T03:38:14.913Z,3.47
2022-11-19T03:40:44.456Z,3.50
2022-11-19T03:43:18.682Z,3.37
2022-11-19T03:45:51.034Z,3.40
2022-11-19T03:48:21.893Z,3.40
2022-11-19T03:50:57.798Z,3.40
2022-11-19T03:53:25.889Z,3.47
2022-11-19T03:56:06.883Z,3.50
2022-11-19T03:58:41.771Z,3.43
2022-11-19T04:01:10.154Z,3.47
2022-11-19T04:03:37.557Z,3.47
2022-11-19T04:06:06.256Z,3.43
2022-11-19T04:08:33.637Z,3.50
2022-11-19T04:13:26.555Z,3.43
2022-11-19T04:15:53.969Z,3.43
2022-11-19T04:18:21.107Z,3.40
2022-11-19T04:20:48.066Z,3.43
2022-11-19T04:23:15.006Z,3.43
2022-11-19T04:25:47.270Z,3.40
2022-11-19T04:28:14.292Z,3.43
2022-11-19T04:30:41.243Z,3.40
2022-11-19T04:33:08.235Z,3.43
2022-11-19T04:35:35.620Z,3.37
2022-11-19T04:38:02.599Z,3.40
2022-11-19T04:40:29.555Z,3.43
2022-11-19T04:42:56.559Z,3.47
2022-11-19T04:45:23.505Z,3.47
2022-11-19T04:47:50.486Z,3.50
2022-11-19T04:50:17.508Z,3.50
2022-11-19T04:52:44.465Z,3.40
2022-11-19T04:55:11.869Z,3.40
2022-11-19T04:57:39.134Z,3.40
2022-11-19T05:00:07.815Z,3.47
2022-11-19T05:02:34.981Z,3.40
2022-11-19T05:05:01.967Z,3.40
2022-11-19T05:07:28.964Z,3.40
2022-11-19T05:09:55.947Z,3.43
2022-11-19T05:12:22.884Z,3.40
2022-11-19T05:14:49.851Z,3.40
2022-11-19T05:17:17.362Z,3.50
2022-11-19T05:19:44.839Z,3.40
2022-11-19T05:22:12.289Z,3.40
2022-11-19T05:24:39.226Z,3.40
2022-11-19T05:27:06.307Z,3.50
2022-11-19T05:29:33.675Z,3.47
2022-11-19T05:32:00.672Z,3.40
2022-11-19T05:34:27.735Z,3.50
2022-11-19T05:36:54.795Z,3.47
2022-11-19T05:39:22.595Z,3.43
2022-11-19T05:41:50.385Z,3.43
2022-11-19T05:44:17.913Z,3.40
2022-11-19T05:46:44.904Z,3.40
2022-11-19T05:49:11.942Z,3.40
2022-11-19T05:51:38.922Z,3.43
2022-11-19T05:54:06.391Z,3.40
2022-11-19T05:56:33.444Z,3.40
2022-11-19T05:59:00.401Z,3.40
2022-11-19T06:01:30.193Z,3.50
2022-11-19T06:03:57.463Z,3.43
2022-11-19T06:06:25.410Z,3.50
2022-11-19T06:08:52.437Z,3.50
2022-11-19T06:11:38.236Z,3.50
2022-11-19T06:14:05.352Z,3.43
2022-11-19T06:16:32.758Z,3.40
2022-11-19T06:18:59.752Z,3.50
2022-11-19T06:21:26.691Z,3.37
2022-11-19T06:23:53.700Z,3.40
2022-11-19T06:26:27.301Z,3.40
2022-11-19T06:28:55.201Z,3.37
2022-11-19T06:31:23.209Z,3.30
2022-11-19T06:33:53.226Z,3.40
2022-11-19T06:36:21.545Z,3.43
2022-11-19T06:38:48.956Z,3.40
2022-11-19T06:41:17.081Z,3.40
2022-11-19T06:43:44.224Z,3.40
2022-11-19T06:46:15.345Z,3.47
2022-11-19T06:48:42.605Z,3.40
2022-11-19T06:51:10.002Z,3.37
2022-11-19T06:53:37.465Z,3.40
2022-11-19T06:56:07.361Z,3.43
2022-11-19T06:58:35.149Z,3.33
2022-11-19T07:01:02.578Z,3.37
2022-11-19T07:03:29.598Z,3.33
2022-11-19T07:06:02.978Z,3.37
2022-11-19T07:08:33.510Z,3.40
2022-11-19T07:11:01.670Z,3.40
2022-11-19T07:13:49.079Z,3.40
2022-11-19T07:16:16.493Z,3.40
2022-11-19T07:18:43.872Z,3.40
2022-11-19T07:21:10.843Z,3.47
2022-11-19T07:23:38.194Z,3.40
2022-11-19T07:26:05.263Z,3.40
2022-11-19T07:28:34.747Z,3.47
2022-11-19T07:31:07.355Z,3.40
2022-11-19T07:33:35.990Z,3.40
2022-11-19T07:36:03.211Z,3.37
2022-11-19T07:38:35.686Z,3.37
2022-11-19T07:41:28.668Z,3.40
2022-11-19T07:43:56.199Z,3.40
2022-11-19T07:46:23.575Z,3.43
2022-11-19T07:48:55.885Z,3.37
2022-11-19T07:51:24.647Z,3.37
2022-11-19T07:53:53.168Z,3.40
2022-11-19T07:56:20.920Z,3.40
2022-11-19T07:58:47.922Z,3.37
2022-11-19T08:01:22.655Z,3.40
2022-11-19T08:03:55.950Z,3.43
2022-11-19T08:06:26.800Z,3.40
2022-11-19T08:08:58.315Z,3.40
2022-11-19T08:11:25.668Z,3.40
2022-11-19T08:13:53.423Z,3.37
2022-11-19T08:16:39.815Z,3.40
2022-11-19T08:19:13.835Z,3.40
2022-11-19T08:21:46.200Z,3.33
2022-11-19T08:24:16.292Z,3.40
2022-11-19T08:26:44.303Z,3.37
2022-11-19T08:29:16.700Z,3.30
2022-11-19T08:31:47.616Z,3.40
2022-11-19T08:34:16.189Z,3.33
2022-11-19T08:36:43.837Z,3.33
2022-11-19T08:39:11.452Z,3.37
2022-11-19T08:41:57.307Z,3.30
2022-11-19T08:44:24.841Z,3.40
2022-11-19T08:46:52.203Z,3.33
2022-11-19T08:49:19.275Z,3.40
2022-11-19T08:51:46.253Z,3.33
2022-11-19T08:54:13.660Z,3.33
2022-11-19T08:56:40.997Z,3.40
2022-11-19T08:59:08.703Z,3.33
2022-11-19T09:03:47.253Z,3.40
2022-11-19T09:06:14.699Z,3.47
2022-11-19T09:08:42.016Z,3.40
2022-11-19T09:11:14.553Z,3.43
2022-11-19T09:13:42.324Z,3.50
2022-11-19T09:16:11.741Z,3.40
2022-11-19T09:18:40.068Z,3.43
2022-11-19T09:21:10.062Z,3.53
2022-11-19T09:23:37.777Z,3.40
2022-11-19T09:26:13.392Z,3.43
2022-11-19T09:28:42.696Z,3.40
2022-11-19T09:31:17.780Z,3.30
2022-11-19T09:33:49.982Z,3.40
2022-11-19T09:36:19.384Z,3.43
2022-11-19T09:38:48.174Z,3.40
2022-11-19T09:41:25.742Z,3.37
2022-11-19T09:44:17.382Z,3.40
2022-11-19T09:47:13.331Z,3.40
2022-11-19T09:49:51.441Z,3.40
2022-11-19T09:52:23.075Z,3.37
2022-11-19T09:54:56.738Z,3.30
2022-11-19T09:57:46.317Z,3.33
2022-11-19T10:00:22.011Z,3.30
2022-11-19T10:02:50.238Z,3.33
2022-11-19T10:05:37.500Z,3.37
2022-11-19T10:08:46.505Z,3.30
2022-11-19T10:11:53.817Z,3.40
2022-11-19T10:15:06.512Z,3.40
2022-11-19T10:18:18.969Z,3.37
2022-11-19T10:21:11.394Z,3.37
2022-11-19T10:24:22.456Z,3.47
2022-11-19T10:27:10.345Z,3.33
2022-11-19T10:29:40.271Z,3.30
2022-11-19T10:32:32.683Z,3.40
2022-11-19T10:35:18.915Z,3.30
2022-11-19T10:38:03.565Z,3.27
2022-11-19T10:40:46.470Z,3.37
2022-11-19T10:43:41.633Z,3.30
2022-11-19T10:46:15.046Z,3.33
2022-11-19T10:48:53.312Z,3.40
2022-11-19T10:51:42.137Z,3.30
2022-11-19T10:54:27.834Z,3.37
2022-11-19T10:56:57.395Z,3.40
2022-11-19T10:59:31.046Z,3.40
2022-11-19T11:02:17.090Z,3.33
2022-11-19T11:05:08.178Z,3.40
2022-11-19T11:08:00.773Z,3.40
2022-11-19T11:10:37.898Z,3.30
2022-11-19T11:13:53.338Z,3.30
2022-11-19T11:16:45.845Z,3.30
2022-11-19T11:19:18.141Z,3.37
2022-11-19T11:21:46.963Z,3.37
2022-11-19T11:24:14.703Z,3.33
2022-11-19T11:26:42.155Z,3.40
2022-11-19T11:29:15.042Z,3.33
2022-11-19T11:31:46.163Z,3.43
2022-11-19T11:34:43.887Z,3.40
2022-11-19T11:37:12.948Z,3.30
2022-11-19T11:39:52.971Z,3.40
2022-11-19T11:42:26.237Z,3.30
2022-11-19T11:44:59.297Z,3.30
2022-11-19T11:47:38.287Z,3.30
2022-11-19T11:50:21.487Z,3.40
2022-11-19T11:52:53.399Z,3.40
2022-11-19T11:55:23.539Z,3.33
2022-11-19T11:58:04.904Z,3.37
2022-11-19T12:00:36.891Z,3.40
2022-11-19T12:03:18.995Z,3.37
2022-11-19T12:06:15.775Z,3.27
2022-11-19T12:09:14.699Z,3.30
2022-11-19T12:12:00.687Z,3.33
2022-11-19T12:15:08.919Z,3.30
2022-11-19T12:18:49.664Z,3.40
2022-11-19T12:22:01.308Z,3.30
2022-11-19T12:24:52.482Z,3.30
2022-11-19T12:27:31.140Z,3.33
2022-11-19T12:30:30.692Z,3.27
2022-11-19T12:33:45.409Z,3.37
2022-11-19T12:36:56.638Z,3.30
2022-11-19T12:40:23.965Z,3.30
2022-11-19T12:43:23.896Z,3.30
2022-11-19T12:46:52.816Z,3.37
2022-11-19T12:50:02.793Z,3.37
2022-11-19T12:53:14.801Z,3.33
2022-11-19T12:56:14.757Z,3.33
2022-11-19T12:59:23.934Z,3.30
2022-11-19T13:01:55.169Z,3.27
2022-11-19T13:04:35.172Z,3.37
2022-11-19T13:07:08.563Z,3.30
2022-11-19T13:09:48.663Z,3.33
2022-11-19T13:12:23.062Z,3.30
2022-11-19T13:15:00.532Z,3.30
2022-11-19T13:17:38.300Z,3.30
2022-11-19T13:20:45.114Z,3.30
2022-11-19T13:23:23.272Z,3.30
2022-11-19T13:26:10.350Z,3.30
2022-11-19T13:29:43.837Z,3.30
2022-11-19T13:32:43.000Z,3.27
2022-11-19T13:35:52.330Z,3.37
2022-11-19T13:38:44.894Z,3.30
2022-11-19T13:41:23.661Z,3.30
2022-11-19T13:44:09.727Z,3.30
2022-11-19T13:46:51.378Z,3.30
2022-11-19T13:49:34.279Z,3.30
2022-11-19T13:52:26.562Z,3.30
2022-11-19T13:54:56.695Z,3.30
2022-11-19T13:57:43.954Z,3.30
2022-11-19T14:00:29.298Z,3.30
2022-11-19T14:03:31.655Z,3.33
2022-11-19T14:06:50.523Z,3.33
2022-11-19T14:09:54.210Z,3.33
2022-11-19T14:13:20.075Z,3.30
2022-11-19T14:17:06.851Z,3.40
2022-11-19T14:20:16.807Z,3.30
2022-11-19T14:23:14.915Z,3.23
2022-11-19T14:26:06.002Z,3.30
2022-11-19T14:28:53.033Z,3.30
2022-11-19T14:31:28.428Z,3.37
2022-11-19T14:34:06.412Z,3.30
2022-11-19T14:37:18.427Z,3.30
2022-11-19T14:39:55.875Z,3.30
2022-11-19T14:42:23.508Z,3.33
2022-11-19T14:45:05.793Z,3.40
2022-11-19T14:47:42.356Z,3.27
2022-11-19T14:50:23.925Z,3.30
2022-11-19T14:53:01.988Z,3.30
2022-11-19T14:55:33.143Z,3.40
2022-11-19T14:58:26.256Z,3.20
2022-11-19T15:01:20.886Z,3.30
2022-11-19T15:04:13.111Z,3.30
2022-11-19T15:06:40.127Z,3.30
2022-11-19T15:09:10.673Z,3.30
2022-11-19T15:12:01.464Z,3.37
2022-11-19T15:15:00.865Z,3.30
2022-11-19T15:17:29.283Z,3.30
2022-11-19T15:20:28.908Z,3.40
2022-11-19T15:23:34.608Z,3.30
2022-11-19T15:26:28.748Z,3.30
2022-11-19T15:29:27.824Z,3.30
2022-11-19T15:32:32.941Z,3.30
2022-11-19T15:35:56.433Z,3.30
2022-11-19T15:38:23.924Z,3.30
2022-11-19T15:40:58.680Z,3.30
2022-11-19T15:43:49.029Z,3.30
2022-11-19T15:46:34.454Z,3.23
2022-11-19T15:49:10.553Z,3.20
2022-11-19T15:52:16.161Z,3.27
2022-11-19T15:54:44.850Z,3.27
2022-11-19T15:57:21.622Z,3.37
2022-11-19T16:00:04.553Z,3.23
2022-11-19T16:02:42.551Z,3.30
2022-11-19T16:05:29.968Z,3.27
2022-11-19T16:08:03.152Z,3.30
2022-11-19T16:10:36.609Z,3.27
2022-11-19T16:13:40.106Z,3.30
2022-11-19T16:16:46.234Z,3.27
2022-11-19T16:19:18.477Z,3.27
2022-11-19T16:21:57.990Z,3.33
2022-11-19T16:24:46.049Z,3.20
2022-11-19T16:27:22.651Z,3.40
2022-11-19T16:29:51.225Z,3.27
2022-11-19T16:32:22.266Z,3.30
2022-11-19T16:34:49.550Z,3.30
2022-11-19T16:37:23.909Z,3.30
2022-11-19T16:39:53.541Z,3.30
2022-11-19T16:42:26.420Z,3.30
2022-11-19T16:45:16.889Z,3.30
2022-11-19T16:47:59.698Z,3.30
2022-11-19T16:50:42.309Z,3.27
2022-11-19T16:53:12.766Z,3.27
2022-11-19T16:55:42.808Z,3.30
2022-11-19T16:58:25.027Z,3.30
2022-11-19T17:00:56.526Z,3.30
2022-11-19T17:03:34.242Z,3.23
2022-11-19T17:06:03.146Z,3.30
2022-11-19T17:08:38.308Z,3.30
2022-11-19T17:11:58.279Z,3.37
2022-11-19T17:14:49.375Z,3.30
2022-11-19T17:17:40.493Z,3.30
2022-11-19T17:20:30.396Z,3.33
2022-11-19T17:22:57.946Z,3.27
2022-11-19T17:25:25.682Z,3.30
2022-11-19T17:27:57.699Z,3.30
2022-11-19T17:30:32.083Z,3.23
2022-11-19T17:33:04.815Z,3.33
2022-11-19T17:35:43.415Z,3.30
2022-11-19T17:38:21.064Z,3.30
2022-11-19T17:41:15.832Z,3.33
2022-11-19T17:44:01.734Z,3.30
2022-11-19T17:46:30.187Z,3.27
2022-11-19T17:48:57.349Z,3.33
2022-11-19T17:51:25.980Z,3.30
2022-11-19T17:53:55.483Z,3.27
2022-11-19T17:56:30.369Z,3.23
2022-11-19T17:58:59.479Z,3.27
2022-11-19T18:01:26.888Z,3.23
2022-11-19T18:03:54.469Z,3.27
2022-11-19T18:06:21.959Z,3.27
2022-11-19T18:08:49.525Z,3.30
2022-11-19T18:11:21.117Z,3.27
2022-11-19T18:13:54.111Z,3.27
2022-11-19T18:16:25.537Z,3.20
2022-11-19T18:18:53.585Z,3.30
2022-11-19T18:21:23.256Z,3.23
2022-11-19T18:23:52.148Z,3.40
2022-11-19T18:26:23.792Z,3.30
2022-11-19T18:28:51.412Z,3.30
2022-11-19T18:31:23.302Z,3.30
2022-11-19T18:33:50.652Z,3.30
2022-11-19T18:36:18.424Z,3.27
2022-11-19T18:38:45.735Z,3.30
2022-11-19T18:41:16.177Z,3.27
2022-11-19T18:44:01.901Z,3.30
2022-11-19T18:46:29.409Z,3.27
2022-11-19T18:48:56.813Z,3.27
2022-11-19T18:51:27.549Z,3.30
2022-11-19T18:53:55.009Z,3.20
2022-11-19T18:56:22.001Z,3.20
2022-11-19T18:58:49.270Z,3.20
2022-11-19T19:01:17.017Z,3.30
2022-11-19T19:03:45.001Z,3.30
2022-11-19T19:06:12.125Z,3.23
2022-11-19T19:08:39.131Z,3.20
2022-11-19T19:11:26.936Z,3.27
2022-11-19T19:13:54.213Z,3.27
2022-11-19T19:16:22.491Z,3.27
2022-11-19T19:18:49.818Z,3.23
2022-11-19T19:21:20.947Z,3.30
2022-11-19T19:23:49.255Z,3.23
2022-11-19T19:26:18.737Z,3.30
2022-11-19T19:28:52.802Z,3.20
2022-11-19T19:31:22.747Z,3.27
2022-11-19T19:33:50.855Z,3.23
2022-11-19T19:36:21.587Z,3.23
2022-11-19T19:38:48.941Z,3.27
2022-11-19T19:41:27.405Z,3.30
2022-11-19T19:43:59.450Z,3.27
2022-11-19T19:46:27.162Z,3.30
2022-11-19T19:48:56.503Z,3.23
2022-11-19T19:51:28.625Z,3.30
2022-11-19T19:53:56.208Z,3.27
2022-11-19T19:56:30.714Z,3.30
2022-11-19T19:59:00.142Z,3.27
2022-11-19T20:01:34.610Z,3.30
2022-11-19T20:04:09.291Z,3.33
2022-11-19T20:06:46.338Z,3.20
2022-11-19T20:09:14.140Z,3.20
2022-11-19T20:11:41.691Z,3.30
2022-11-19T20:14:10.166Z,3.27
2022-11-19T20:16:40.840Z,3.23
2022-11-19T20:19:17.570Z,3.27
2022-11-19T20:21:46.919Z,3.23
2022-11-19T20:24:14.167Z,3.27
2022-11-19T20:26:42.333Z,3.23
2022-11-19T20:29:14.032Z,3.20
2022-11-19T20:31:46.891Z,3.27
2022-11-19T20:34:15.186Z,3.27
2022-11-19T20:36:43.932Z,3.33
2022-11-19T20:39:12.426Z,3.30
2022-11-19T20:41:58.050Z,3.23
2022-11-19T20:44:25.501Z,3.20
2022-11-19T20:47:02.990Z,3.20
2022-11-19T20:49:40.267Z,3.20
2022-11-19T20:52:08.444Z,3.20
2022-11-19T20:54:36.047Z,3.27
2022-11-19T20:57:03.660Z,3.30
2022-11-19T20:59:30.647Z,3.23
2022-11-19T21:01:57.977Z,3.20
2022-11-19T21:04:28.529Z,3.30
2022-11-19T21:06:56.262Z,3.30
2022-11-19T21:09:24.719Z,3.20
2022-11-19T21:11:52.185Z,3.20
2022-11-19T21:14:19.359Z,3.27
2022-11-19T21:16:46.343Z,3.20
2022-11-19T21:19:14.308Z,3.23
2022-11-19T21:21:41.748Z,3.20
2022-11-19T21:24:09.215Z,3.30
2022-11-19T21:26:36.763Z,3.27
2022-11-19T21:29:03.980Z,3.30
2022-11-19T21:31:38.439Z,3.20
2022-11-19T21:34:13.677Z,3.20
2022-11-19T21:36:42.863Z,3.23
2022-11-19T21:39:11.437Z,3.27
2022-11-19T21:41:38.528Z,3.30
2022-11-19T21:44:06.374Z,3.23
2022-11-19T21:46:35.783Z,3.23
2022-11-19T21:49:03.565Z,3.20
2022-11-19T21:51:31.057Z,3.23
2022-11-19T21:53:59.058Z,3.27
2022-11-19T21:56:31.276Z,3.20
2022-11-19T21:59:01.137Z,3.27
2022-11-19T22:01:28.544Z,3.23
2022-11-19T22:03:55.484Z,3.20
2022-11-19T22:06:22.469Z,3.30
2022-11-19T22:08:49.882Z,3.23
2022-11-19T22:11:28.966Z,3.23
2022-11-19T22:14:07.034Z,3.30
2022-11-19T22:16:40.045Z,3.23
2022-11-19T22:19:07.169Z,3.30
2022-11-19T22:21:35.131Z,3.27
2022-11-19T22:24:02.230Z,3.23
2022-11-19T22:26:29.478Z,3.30
2022-11-19T22:28:57.012Z,3.20
2022-11-19T22:31:25.324Z,3.27
2022-11-19T22:33:53.785Z,3.20
2022-11-19T22:36:23.415Z,3.23
2022-11-19T22:38:52.476Z,3.23
2022-11-19T22:41:21.847Z,3.33
2022-11-19T22:43:49.859Z,3.20
2022-11-19T22:46:18.433Z,3.27
2022-11-19T22:48:45.802Z,3.20
2022-11-19T22:51:22.104Z,3.20
2022-11-19T22:53:52.515Z,3.20
2022-11-19T22:56:30.007Z,3.20
2022-11-19T22:58:57.979Z,3.30
2022-11-19T23:01:32.092Z,3.23
2022-11-19T23:04:05.682Z,3.20
2022-11-19T23:06:35.787Z,3.30
2022-11-19T23:09:05.282Z,3.20
2022-11-19T23:11:51.296Z,3.23
2022-11-19T23:14:20.013Z,3.30
2022-11-19T23:16:47.565Z,3.20
2022-11-19T23:19:19.225Z,3.30
2022-11-19T23:21:46.842Z,3.30
2022-11-19T23:24:14.511Z,3.30
2022-11-19T23:26:41.568Z,3.27
2022-11-19T23:29:09.189Z,3.23
2022-11-19T23:31:39.439Z,3.30
2022-11-19T23:34:07.434Z,3.27
2022-11-19T23:36:39.485Z,3.23
2022-11-19T23:39:13.885Z,3.30
2022-11-19T23:41:41.000Z,3.30
2022-11-19T23:44:08.531Z,3.20
2022-11-19T23:46:36.966Z,3.30
2022-11-19T23:49:05.579Z,3.17
2022-11-19T23:51:38.107Z,3.27
2022-11-19T23:54:06.512Z,3.20
2022-11-19T23:56:35.772Z,3.30
2022-11-19T23:59:05.828Z,3.20
